Time;durP1;ratioP1;P1;durP2;ratioP2;P2;SDS_P1;SDS_P2;PMS_P1;PMS_P2;Temp;Humidity;BMP_temperature;BMP_pressure;BME280_temperature;BME280_humidity;BME280_pressure;Samples;Min_cycle;Max_cycle;Signal;HPM_P1;HPM_P2
2021/05/02 00:01:33;;;;;;;47.20;25.15;;;;;;;8.43;100.00;100591.56;5035221;28;20112;-75
2021/05/02 00:03:58;;;;;;;44.35;24.98;;;;;;;8.53;100.00;100586.50;5053875;28;20583;-75
2021/05/02 00:06:24;;;;;;;47.47;25.98;;;;;;;8.64;100.00;100592.16;5033074;28;20467;-75
2021/05/02 00:08:50;;;;;;;45.88;24.58;;;;;;;8.55;100.00;100591.53;5054137;28;20029;-75
2021/05/02 00:11:15;;;;;;;52.03;26.48;;;;;;;8.30;100.00;100588.16;5056163;28;20039;-75
2021/05/02 00:13:41;;;;;;;47.15;24.75;;;;;;;8.12;100.00;100592.19;5035342;28;20109;-75
2021/05/02 00:16:07;;;;;;;45.10;24.80;;;;;;;8.29;100.00;100594.63;5047840;28;20041;-75
2021/05/02 00:18:34;;;;;;;47.25;24.10;;;;;;;8.42;100.00;100595.38;5031288;28;20033;-75
2021/05/02 00:21:00;;;;;;;44.28;23.75;;;;;;;8.19;100.00;100590.50;5048466;28;20079;-75
2021/05/02 00:23:25;;;;;;;36.92;21.48;;;;;;;8.24;100.00;100586.81;5044388;28;20515;-75
2021/05/02 00:25:51;;;;;;;43.35;22.48;;;;;;;8.36;100.00;100581.44;5051364;28;20037;-75
2021/05/02 00:28:17;;;;;;;43.80;22.60;;;;;;;8.18;100.00;100582.81;5031566;28;20053;-75
2021/05/02 00:30:44;;;;;;;36.85;20.58;;;;;;;8.06;100.00;100588.19;5054711;28;20017;-75
2021/05/02 00:33:10;;;;;;;37.00;20.75;;;;;;;8.09;100.00;100587.53;5043100;28;20041;-75
2021/05/02 00:35:36;;;;;;;35.95;20.75;;;;;;;7.86;100.00;100583.75;5026294;28;20040;-75
2021/05/02 00:38:02;;;;;;;36.90;20.23;;;;;;;7.83;100.00;100589.81;5043754;28;20041;-75
2021/05/02 00:40:37;;;;;;;39.55;21.25;;;;;;;7.68;100.00;100588.59;5026009;28;20089;-75
2021/05/02 00:43:08;;;;;;;41.08;21.20;;;;;;;7.68;100.00;100591.28;5047976;28;20092;-75
2021/05/02 00:45:55;;;;;;;38.03;20.95;;;;;;;7.66;100.00;100580.13;5041765;28;20037;-75
2021/05/02 00:48:26;;;;;;;39.88;21.05;;;;;;;7.47;100.00;100589.84;5035571;28;20048;-75
2021/05/02 00:51:01;;;;;;;38.83;20.23;;;;;;;7.49;100.00;100583.00;5043558;28;20059;-75
2021/05/02 00:53:52;;;;;;;37.63;19.80;;;;;;;7.35;100.00;100579.13;5043115;28;20048;-75
2021/05/02 00:56:24;;;;;;;36.03;19.73;;;;;;;7.58;100.00;100577.53;5051805;28;20083;-75
2021/05/02 00:59:02;;;;;;;35.80;20.00;;;;;;;7.69;100.00;100586.69;5048491;28;20037;-74
2021/05/02 01:01:31;;;;;;;34.47;19.30;;;;;;;7.64;100.00;100582.34;5015533;28;20398;-75
2021/05/02 01:03:59;;;;;;;39.15;20.77;;;;;;;7.62;100.00;100578.44;5032652;28;20154;-75
2021/05/02 01:06:25;;;;;;;37.58;20.45;;;;;;;7.57;100.00;100582.13;5051281;28;20044;-75
2021/05/02 01:08:53;;;;;;;36.63;20.00;;;;;;;7.74;100.00;100584.56;5025800;28;20032;-75
2021/05/02 01:11:18;;;;;;;36.17;20.63;;;;;;;7.78;100.00;100587.38;5048577;28;20055;-75
2021/05/02 01:13:52;;;;;;;35.47;19.98;;;;;;;7.58;100.00;100583.69;5057993;28;20316;-75
2021/05/02 01:16:20;;;;;;;37.50;19.73;;;;;;;7.38;100.00;100583.78;5043045;28;20037;-75
2021/05/02 01:18:47;;;;;;;37.08;20.25;;;;;;;7.43;100.00;100586.25;5047244;28;20029;-74
2021/05/02 01:21:14;;;;;;;35.25;19.75;;;;;;;7.59;100.00;100585.25;5032216;28;20017;-75
2021/05/02 01:23:40;;;;;;;34.50;20.63;;;;;;;7.49;100.00;100585.69;5051119;28;20044;-75
2021/05/02 01:26:07;;;;;;;36.20;18.83;;;;;;;7.47;100.00;100579.13;5031358;28;20418;-75
2021/05/02 01:28:35;;;;;;;36.65;20.15;;;;;;;7.50;100.00;100573.88;5045943;28;20028;-75
2021/05/02 01:31:01;;;;;;;38.22;20.40;;;;;;;7.49;100.00;100583.00;5046277;28;20034;-75
2021/05/02 01:33:26;;;;;;;39.55;20.83;;;;;;;7.67;100.00;100573.63;5029531;28;20128;-75
2021/05/02 01:35:52;;;;;;;40.85;21.50;;;;;;;7.78;100.00;100580.09;5048017;28;20029;-75
2021/05/02 01:38:21;;;;;;;37.92;20.45;;;;;;;7.76;100.00;100585.00;5044269;28;20032;-75
2021/05/02 01:40:47;;;;;;;34.58;20.38;;;;;;;7.68;100.00;100582.47;5017138;28;20071;-75
2021/05/02 01:43:12;;;;;;;39.42;21.55;;;;;;;7.67;100.00;100579.00;5050354;28;20037;-74
2021/05/02 01:45:38;;;;;;;43.13;22.25;;;;;;;7.59;100.00;100579.13;5048153;28;20063;-75
2021/05/02 01:48:06;;;;;;;42.42;21.90;;;;;;;7.66;100.00;100572.09;5039916;28;20072;-75
2021/05/02 01:50:41;;;;;;;42.65;22.73;;;;;;;8.00;100.00;100576.13;5044609;28;20134;-75
2021/05/02 01:53:07;;;;;;;42.33;22.27;;;;;;;8.17;100.00;100581.22;5068478;28;20036;-75
2021/05/02 01:55:33;;;;;;;44.72;22.92;;;;;;;8.22;100.00;100572.97;5052501;28;20166;-75
2021/05/02 01:57:59;;;;;;;45.40;23.02;;;;;;;8.17;100.00;100573.19;5052672;28;20584;-75
2021/05/02 02:00:25;;;;;;;40.33;21.73;;;;;;;8.04;100.00;100575.13;5039953;28;20034;-75
2021/05/02 02:02:59;;;;;;;40.22;22.73;;;;;;;7.88;100.00;100574.25;5032804;28;20124;-75
2021/05/02 02:05:25;;;;;;;43.00;22.20;;;;;;;7.96;100.00;100570.69;5023247;28;20485;-75
2021/05/02 02:07:51;;;;;;;41.60;22.63;;;;;;;7.79;100.00;100568.25;5050406;28;20124;-75
2021/05/02 02:10:21;;;;;;;44.75;23.63;;;;;;;7.88;100.00;100560.84;5035195;28;20400;-75
2021/05/02 02:12:49;;;;;;;49.20;23.85;;;;;;;8.05;100.00;100567.88;5040584;28;20398;-75
2021/05/02 02:15:15;;;;;;;41.80;22.50;;;;;;;8.11;100.00;100574.53;5043415;28;20036;-75
2021/05/02 02:17:42;;;;;;;50.00;25.23;;;;;;;8.26;100.00;100573.88;5040514;28;20884;-75
2021/05/02 02:20:09;;;;;;;47.20;24.55;;;;;;;8.08;100.00;100570.66;5022684;28;20033;-75
2021/05/02 02:22:39;;;;;;;49.58;25.40;;;;;;;8.20;100.00;100567.16;5051572;28;20025;-75
2021/05/02 02:25:07;;;;;;;51.65;26.75;;;;;;;8.41;100.00;100564.28;5052088;28;20147;-74
2021/05/02 02:27:33;;;;;;;55.95;26.63;;;;;;;8.48;100.00;100570.63;5029507;28;20586;-75
2021/05/02 02:30:03;;;;;;;52.78;26.88;;;;;;;8.56;100.00;100574.28;5052391;28;20458;-75
2021/05/02 02:32:29;;;;;;;52.88;25.92;;;;;;;8.40;100.00;100576.94;5047298;28;20033;-76
2021/05/02 02:34:57;;;;;;;52.13;26.92;;;;;;;8.22;100.00;100570.28;5046235;28;20397;-75
2021/05/02 02:37:25;;;;;;;46.75;25.42;;;;;;;8.22;100.00;100578.31;5050312;28;20033;-76
2021/05/02 02:39:53;;;;;;;51.83;25.98;;;;;;;8.11;100.00;100563.81;5055157;28;20044;-76
2021/05/02 02:42:22;;;;;;;52.08;25.42;;;;;;;8.24;100.00;100568.03;5046823;28;20073;-76
2021/05/02 02:44:50;;;;;;;53.63;26.67;;;;;;;8.07;100.00;100573.69;5043933;28;20523;-76
2021/05/02 02:47:22;;;;;;;53.97;26.83;;;;;;;8.23;100.00;100569.94;5043282;28;20112;-76
2021/05/02 02:49:49;;;;;;;;;;;;;;;8.29;100.00;100578.53;5038997;28;20039;-76
2021/05/02 02:52:18;;;;;;;51.17;26.00;;;;;;;8.30;100.00;100572.06;5034695;28;20364;-76
2021/05/02 02:55:10;;;;;;;51.67;26.13;;;;;;;8.53;100.00;100572.31;5045439;28;20028;-76
2021/05/02 02:57:58;;;;;;;55.60;27.17;;;;;;;8.67;100.00;100575.38;5040559;28;20045;-75
2021/05/02 03:00:27;;;;;;;52.20;27.20;;;;;;;8.54;100.00;100569.28;5053516;28;20104;-76
2021/05/02 03:03:11;;;;;;;58.35;28.42;;;;;;;8.46;100.00;100572.88;5047870;28;20040;-76
2021/05/02 03:05:38;;;;;;;59.80;29.40;;;;;;;8.44;100.00;100577.81;5046487;28;20051;-76
2021/05/02 03:08:06;;;;;;;61.40;30.05;;;;;;;8.38;100.00;100571.13;5043634;28;20042;-76
2021/05/02 03:10:32;;;;;;;56.13;28.55;;;;;;;8.17;100.00;100582.00;5035197;28;20112;-76
2021/05/02 03:12:59;;;;;;;64.22;29.80;;;;;;;8.29;100.00;100575.84;5036940;28;20457;-76
2021/05/02 03:15:25;;;;;;;60.22;28.80;;;;;;;8.35;100.00;100579.88;5039820;28;20071;-77
2021/05/02 03:18:04;;;;;;;58.33;29.15;;;;;;;8.68;100.00;100580.41;5034791;28;20037;-76
2021/05/02 03:20:34;;;;;;;64.22;30.35;;;;;;;9.00;100.00;100589.28;5024227;28;20398;-76
2021/05/02 03:23:07;;;;;;;60.80;29.73;;;;;;;8.92;100.00;100588.28;5044547;28;20091;-76
2021/05/02 03:25:34;;;;;;;62.42;29.80;;;;;;;8.74;100.00;100588.97;5052521;28;20082;-76
2021/05/02 03:28:03;;;;;;;61.28;30.52;;;;;;;8.67;100.00;100592.25;5051700;28;20469;-76
2021/05/02 03:30:30;;;;;;;63.35;31.02;;;;;;;8.67;100.00;100586.88;5043944;28;20029;-76
2021/05/02 03:32:58;;;;;;;62.60;29.90;;;;;;;8.90;100.00;100587.84;5047652;28;20508;-76
2021/05/02 03:35:29;;;;;;;63.53;30.45;;;;;;;8.98;100.00;100592.28;5046239;28;20040;-76
2021/05/02 03:38:09;;;;;;;63.58;30.42;;;;;;;9.03;100.00;100586.69;5044881;28;20115;-76
2021/05/02 03:40:35;;;;;;;63.55;30.52;;;;;;;8.91;100.00;100591.34;5043473;28;20032;-77
2021/05/02 03:43:00;;;;;;;59.88;29.38;;;;;;;9.06;100.00;100596.72;5032701;28;20047;-76
2021/05/02 03:45:26;;;;;;;58.63;29.63;;;;;;;9.09;100.00;100593.38;5051053;28;20040;-76
2021/05/02 03:47:51;;;;;;;60.65;30.02;;;;;;;8.89;100.00;100590.91;5049381;28;20044;-76
2021/05/02 03:50:17;;;;;;;56.90;29.25;;;;;;;8.61;100.00;100587.47;5061092;28;20028;-77
2021/05/02 03:52:42;;;;;;;61.47;29.63;;;;;;;8.68;100.00;100591.13;5053917;28;20033;-76
2021/05/02 03:55:08;;;;;;;58.80;28.92;;;;;;;8.62;100.00;100594.38;5050721;28;20048;-76
2021/05/02 03:57:34;;;;;;;63.17;29.98;;;;;;;8.70;100.00;100593.47;5045562;28;20210;-76
2021/05/02 03:59:59;;;;;;;58.08;29.63;;;;;;;8.95;100.00;100605.63;5043243;28;20037;-76
2021/05/02 04:02:25;;;;;;;65.95;31.10;;;;;;;8.84;100.00;100594.63;5041428;28;20055;-76
2021/05/02 04:04:50;;;;;;;59.78;30.65;;;;;;;8.96;100.00;100599.91;5039177;28;20033;-76
2021/05/02 04:07:16;;;;;;;63.05;30.98;;;;;;;9.02;100.00;100603.91;5046886;28;20055;-76
2021/05/02 04:09:45;;;;;;;67.65;31.67;;;;;;;8.97;100.00;100606.06;5040156;28;20392;-76
2021/05/02 04:12:11;;;;;;;65.03;31.48;;;;;;;8.96;100.00;100597.22;5041586;28;20052;-76
2021/05/02 04:14:37;;;;;;;67.97;31.25;;;;;;;8.98;100.00;100605.72;5047253;28;20067;-76
2021/05/02 04:17:05;;;;;;;65.32;31.05;;;;;;;9.07;100.00;100606.34;5038049;28;20037;-77
2021/05/02 04:19:35;;;;;;;70.50;31.35;;;;;;;9.14;100.00;100602.28;5044969;28;20075;-76
2021/05/02 04:22:02;;;;;;;74.50;33.38;;;;;;;9.06;100.00;100606.69;5045536;28;20112;-77
2021/05/02 04:24:27;;;;;;;64.07;31.95;;;;;;;9.06;100.00;100604.00;5031650;28;20025;-77
2021/05/02 04:26:54;;;;;;;67.95;31.13;;;;;;;9.12;100.00;100610.66;5049490;28;20052;-77
2021/05/02 04:29:21;;;;;;;62.75;30.90;;;;;;;9.15;100.00;100603.84;5048284;28;20048;-77
2021/05/02 04:31:47;;;;;;;71.78;33.38;;;;;;;8.98;100.00;100611.09;5045582;28;20017;-77
2021/05/02 04:34:13;;;;;;;67.22;32.90;;;;;;;8.93;100.00;100608.66;5032046;28;20033;-77
2021/05/02 04:36:38;;;;;;;67.43;33.67;;;;;;;9.06;100.00;100610.16;5023413;28;20462;-77
2021/05/02 04:39:05;;;;;;;67.13;32.80;;;;;;;9.00;100.00;100608.84;5044628;28;20036;-76
2021/05/02 04:41:30;;;;;;;67.18;31.73;;;;;;;8.82;100.00;100610.31;5061663;28;20021;-77
2021/05/02 04:43:56;;;;;;;64.90;31.70;;;;;;;8.91;100.00;100610.91;5049978;28;20559;-77
2021/05/02 04:46:22;;;;;;;65.05;30.98;;;;;;;9.00;100.00;100614.22;5061630;28;20118;-77
2021/05/02 04:48:48;;;;;;;71.40;32.25;;;;;;;9.06;100.00;100615.53;5039213;28;20036;-77
2021/05/02 04:51:14;;;;;;;67.50;31.70;;;;;;;9.13;100.00;100616.84;5044817;28;20029;-76
2021/05/02 04:53:43;;;;;;;66.45;32.67;;;;;;;9.10;100.00;100621.78;5047580;28;20028;-77
2021/05/02 04:56:09;;;;;;;68.43;32.85;;;;;;;9.16;100.00;100624.19;5048237;28;20044;-77
2021/05/02 04:58:34;;;;;;;66.32;32.50;;;;;;;9.16;100.00;100626.88;5036897;28;20040;-77
2021/05/02 05:01:00;;;;;;;63.72;31.77;;;;;;;9.08;100.00;100623.22;5037978;28;20051;-77
2021/05/02 05:03:27;;;;;;;70.10;31.65;;;;;;;9.24;100.00;100624.03;5031552;28;20021;-77
2021/05/02 05:05:52;;;;;;;64.00;31.52;;;;;;;9.17;100.00;100631.13;5012938;28;20094;-77
2021/05/02 05:08:18;;;;;;;70.72;32.55;;;;;;;9.27;100.00;100630.63;5029972;28;20045;-77
2021/05/02 05:10:43;;;;;;;70.35;32.28;;;;;;;9.15;100.00;100638.75;5030064;28;20102;-77
2021/05/02 05:13:09;;;;;;;67.60;32.53;;;;;;;9.12;100.00;100636.78;5017449;28;20124;-77
2021/05/02 05:15:35;;;;;;;67.70;32.47;;;;;;;9.19;100.00;100643.09;5023619;28;20033;-77
2021/05/02 05:18:00;;;;;;;63.13;30.80;;;;;;;9.23;100.00;100643.19;5032242;28;20099;-77
2021/05/02 05:20:26;;;;;;;69.32;33.60;;;;;;;9.21;100.00;100642.75;5034230;28;20041;-77
2021/05/02 05:22:52;;;;;;;63.50;31.63;;;;;;;9.39;100.00;100650.13;5032401;28;20116;-77
2021/05/02 05:25:17;;;;;;;73.13;33.72;;;;;;;9.37;100.00;100651.63;5043427;28;20025;-77
2021/05/02 05:27:43;;;;;;;66.57;33.20;;;;;;;9.41;100.00;100652.47;5036984;28;20040;-77
2021/05/02 05:30:09;;;;;;;71.32;32.97;;;;;;;9.51;100.00;100660.78;5040832;28;20035;-76
2021/05/02 05:32:36;;;;;;;73.32;33.40;;;;;;;9.65;100.00;100655.78;5045169;28;20041;-77
2021/05/02 05:35:02;;;;;;;73.32;33.10;;;;;;;9.72;100.00;100658.63;5046610;28;20025;-77
2021/05/02 05:37:28;;;;;;;71.32;33.97;;;;;;;9.76;100.00;100667.56;5042433;28;20116;-76
2021/05/02 05:39:53;;;;;;;81.75;35.42;;;;;;;9.84;100.00;100655.03;5046638;28;20112;-77
2021/05/02 05:42:19;;;;;;;80.15;35.45;;;;;;;9.89;100.00;100660.19;5043134;28;20044;-77
2021/05/02 05:44:44;;;;;;;76.90;34.70;;;;;;;9.88;100.00;100664.78;5038494;28;20029;-77
2021/05/02 05:47:12;;;;;;;80.25;34.90;;;;;;;9.89;100.00;100660.94;5036865;28;20408;-77
2021/05/02 05:49:38;;;;;;;76.38;34.55;;;;;;;9.93;100.00;100672.56;5038917;28;20041;-78
2021/05/02 05:52:05;;;;;;;76.93;34.13;;;;;;;9.99;100.00;100678.44;5047579;28;20021;-76
2021/05/02 05:54:31;;;;;;;82.63;36.20;;;;;;;10.07;100.00;100674.78;5061199;28;20051;-76
2021/05/02 05:56:56;;;;;;;77.85;34.83;;;;;;;10.22;100.00;100671.31;5041159;28;20033;-76
2021/05/02 05:59:22;;;;;;;82.43;35.22;;;;;;;10.26;100.00;100682.19;5047301;28;20461;-76
2021/05/02 06:01:47;;;;;;;76.03;34.17;;;;;;;10.22;100.00;100673.25;5048073;28;20485;-77
2021/05/02 06:04:13;;;;;;;72.65;34.05;;;;;;;10.30;100.00;100674.97;5056938;28;20608;-76
2021/05/02 06:06:38;;;;;;;74.47;34.00;;;;;;;10.26;100.00;100679.47;5048206;28;20025;-77
2021/05/02 06:09:25;;;;;;;73.43;34.65;;;;;;;10.44;100.00;100676.03;5054298;28;20494;-77
2021/05/02 06:11:52;;;;;;;75.57;35.15;;;;;;;10.52;100.00;100680.44;4983097;28;20442;-77
2021/05/02 06:14:18;;;;;;;71.53;33.33;;;;;;;10.66;100.00;100685.31;4984844;28;20051;-76
2021/05/02 06:16:43;;;;;;;69.90;33.97;;;;;;;10.78;100.00;100682.50;4988701;28;20042;-77
2021/05/02 06:19:09;;;;;;;69.22;33.45;;;;;;;10.84;100.00;100678.38;4984311;28;20573;-77
2021/05/02 06:21:34;;;;;;;70.43;33.22;;;;;;;10.78;100.00;100682.50;4987832;28;20065;-77
2021/05/02 06:24:00;;;;;;;72.65;33.17;;;;;;;10.89;100.00;100675.41;5059983;22;20041;-81
2021/05/02 06:26:27;;;;;;;72.35;33.50;;;;;;;10.82;100.00;100684.13;5073417;28;20024;-81
2021/05/02 06:28:53;;;;;;;62.75;31.60;;;;;;;11.03;100.00;100680.28;5070262;28;20098;-76
2021/05/02 06:31:19;;;;;;;63.22;30.80;;;;;;;11.01;100.00;100682.53;5061267;28;20033;-80
2021/05/02 06:33:46;;;;;;;61.17;30.70;;;;;;;11.18;100.00;100674.00;5063253;28;20551;-78
2021/05/02 06:36:11;;;;;;;60.55;30.95;;;;;;;11.36;99.56;100678.56;5050759;28;20029;-79
2021/05/02 06:38:37;;;;;;;61.70;30.40;;;;;;;11.27;99.57;100672.63;5048964;28;20041;-79
2021/05/02 06:41:03;;;;;;;57.35;29.13;;;;;;;11.43;99.33;100669.81;5040951;28;20044;-80
2021/05/02 06:43:29;;;;;;;52.97;27.20;;;;;;;11.65;98.52;100687.94;5058715;28;20501;-76
2021/05/02 06:45:55;;;;;;;52.92;26.70;;;;;;;11.74;97.68;100681.19;5054575;28;20024;-80
2021/05/02 06:48:20;;;;;;;50.60;26.27;;;;;;;11.86;96.88;100674.03;5051499;28;20037;-78
2021/05/02 06:50:46;;;;;;;48.10;26.00;;;;;;;11.91;95.43;100679.09;5050303;28;20029;-79
2021/05/02 06:53:11;;;;;;;48.85;25.02;;;;;;;11.93;95.12;100672.22;5024417;28;20047;-81
2021/05/02 06:55:38;;;;;;;51.80;27.23;;;;;;;12.05;96.00;100682.81;5050874;28;20048;-75
2021/05/02 06:58:03;;;;;;;50.20;27.13;;;;;;;12.27;95.93;100684.66;5055346;28;20697;-77
2021/05/02 07:00:29;;;;;;;50.70;27.73;;;;;;;12.50;94.76;100677.25;5049150;28;20029;-80
2021/05/02 07:02:55;;;;;;;48.45;26.35;;;;;;;12.57;93.30;100676.56;5035751;28;20062;-81
2021/05/02 07:05:22;;;;;;;48.75;26.25;;;;;;;12.91;93.09;100677.34;5048224;28;20104;-80
2021/05/02 07:07:48;;;;;;;44.58;26.13;;;;;;;12.93;92.25;100677.78;5039572;28;20029;-80
2021/05/02 07:10:14;;;;;;;45.78;25.30;;;;;;;13.06;91.71;100679.09;5042534;28;20029;-79
2021/05/02 07:12:40;;;;;;;44.97;24.00;;;;;;;13.26;89.98;100677.72;5050350;28;20048;-80
2021/05/02 07:15:06;;;;;;;45.22;25.23;;;;;;;13.05;91.00;100685.63;5021934;28;20029;-79
2021/05/02 07:17:32;;;;;;;35.45;21.70;;;;;;;13.19;88.87;100686.56;5051003;28;20040;-80
2021/05/02 07:19:58;;;;;;;37.95;22.13;;;;;;;13.18;87.85;100689.66;5033320;28;20633;-80
2021/05/02 07:22:26;;;;;;;36.90;21.40;;;;;;;13.26;86.80;100685.84;5044607;28;20401;-80
2021/05/02 07:24:53;;;;;;;33.67;20.58;;;;;;;13.27;87.62;100692.81;5058564;28;20051;-80
2021/05/02 07:27:19;;;;;;;33.35;19.30;;;;;;;13.42;86.97;100700.72;5053651;28;20082;-81
2021/05/02 07:29:44;;;;;;;28.65;17.85;;;;;;;13.46;86.32;100698.03;5057516;28;20076;-80
2021/05/02 07:32:10;;;;;;;28.98;17.77;;;;;;;13.66;85.70;100691.25;5046632;28;20497;-79
2021/05/02 07:34:36;;;;;;;29.88;18.42;;;;;;;13.71;85.21;100690.91;5049695;28;20524;-81
2021/05/02 07:37:01;;;;;;;28.08;17.08;;;;;;;13.89;84.45;100696.47;5061813;28;20025;-78
2021/05/02 07:39:27;;;;;;;26.85;16.42;;;;;;;13.91;83.70;100697.66;5044014;28;20132;-81
2021/05/02 07:41:53;;;;;;;27.98;15.63;;;;;;;13.92;83.62;100696.47;5026999;28;20033;-80
2021/05/02 07:44:19;;;;;;;22.67;14.85;;;;;;;14.05;83.97;100702.38;5043744;28;20028;-78
2021/05/02 07:46:44;;;;;;;23.23;14.80;;;;;;;14.00;82.41;100700.81;5045787;28;20040;-80
2021/05/02 07:49:10;;;;;;;19.98;13.45;;;;;;;14.28;81.20;100703.75;5033163;28;20033;-80
2021/05/02 07:51:36;;;;;;;20.67;13.23;;;;;;;14.53;80.88;100709.28;5049255;28;20029;-79
2021/05/02 07:54:01;;;;;;;20.40;12.35;;;;;;;14.79;79.22;100725.28;5044734;28;20094;-80
2021/05/02 07:56:27;;;;;;;17.15;10.70;;;;;;;15.01;74.64;100707.16;5051571;28;20056;-80
2021/05/02 07:58:52;;;;;;;18.52;11.27;;;;;;;14.94;75.61;100697.03;5046201;28;20090;-80
2021/05/02 08:01:18;;;;;;;17.17;11.30;;;;;;;15.14;74.76;100705.63;5049296;28;20020;-79
2021/05/02 08:03:43;;;;;;;14.88;10.32;;;;;;;15.19;73.12;100700.59;5036501;28;20053;-78
2021/05/02 08:06:09;;;;;;;12.38;9.18;;;;;;;15.23;72.47;100706.06;5056946;28;20092;-79
2021/05/02 08:08:34;;;;;;;15.93;10.20;;;;;;;15.52;70.86;100698.75;5058573;28;20412;-79
2021/05/02 08:11:00;;;;;;;17.88;10.63;;;;;;;15.54;72.34;100701.88;5047380;28;20033;-79
2021/05/02 08:13:25;;;;;;;13.02;9.50;;;;;;;15.74;70.68;100709.25;5057378;28;20029;-79
2021/05/02 08:15:51;;;;;;;13.32;8.75;;;;;;;15.37;69.27;100706.84;5040442;28;20391;-78
2021/05/02 08:18:17;;;;;;;14.05;8.82;;;;;;;15.11;68.62;100706.41;5050749;28;20045;-76
2021/05/02 08:20:43;;;;;;;12.35;8.93;;;;;;;14.60;72.13;100706.59;5060192;28;20057;-79
2021/05/02 08:23:09;;;;;;;11.15;8.50;;;;;;;14.52;72.86;100704.25;5064639;28;20032;-78
2021/05/02 08:25:35;;;;;;;11.70;8.88;;;;;;;14.43;73.92;100708.06;5034215;28;20031;-78
2021/05/02 08:28:00;;;;;;;14.40;9.77;;;;;;;14.43;72.37;100708.06;5047843;28;20454;-79
2021/05/02 08:30:26;;;;;;;15.25;9.10;;;;;;;14.65;72.10;100710.91;5041483;28;20067;-79
2021/05/02 08:32:51;;;;;;;12.60;8.85;;;;;;;14.38;71.48;100705.72;5065224;28;20041;-79
2021/05/02 08:35:17;;;;;;;14.60;8.98;;;;;;;14.25;72.66;100718.00;5015711;28;20021;-77
2021/05/02 08:37:43;;;;;;;14.40;9.23;;;;;;;14.09;74.17;100709.38;5047715;28;20059;-79
2021/05/02 08:40:09;;;;;;;13.32;8.63;;;;;;;14.41;71.97;100721.22;5025408;28;20151;-79
2021/05/02 08:42:35;;;;;;;11.85;8.25;;;;;;;14.24;71.39;100712.97;5057801;28;20025;-79
2021/05/02 08:45:03;;;;;;;11.88;8.52;;;;;;;14.38;72.06;100713.84;5055518;28;20029;-76
2021/05/02 08:47:35;;;;;;;13.60;9.07;;;;;;;14.47;71.83;100708.09;5052308;28;20021;-78
2021/05/02 08:50:06;;;;;;;14.57;9.10;;;;;;;14.09;74.72;100703.94;5058905;28;20032;-79
2021/05/02 08:52:31;;;;;;;12.52;9.00;;;;;;;14.14;74.33;100716.38;5032332;28;20214;-75
2021/05/02 08:54:57;;;;;;;12.38;9.18;;;;;;;14.29;71.98;100710.69;5043405;28;20032;-79
2021/05/02 08:57:26;;;;;;;11.80;8.32;;;;;;;14.24;70.52;100704.84;5045615;28;20702;-78
2021/05/02 08:59:51;;;;;;;14.10;8.65;;;;;;;14.38;69.50;100711.13;5035002;28;20045;-79
2021/05/02 09:02:22;;;;;;;12.98;8.90;;;;;;;14.18;69.35;100709.84;5042020;28;20022;-78
2021/05/02 09:04:55;;;;;;;13.25;9.27;;;;;;;14.14;70.47;100710.94;5021201;28;20397;-79
2021/05/02 09:07:21;;;;;;;13.68;8.77;;;;;;;14.03;71.65;100716.28;5038296;28;20116;-78
2021/05/02 09:09:47;;;;;;;14.18;9.00;;;;;;;13.92;71.01;100703.81;5040691;28;20103;-78
2021/05/02 09:12:23;;;;;;;17.33;10.38;;;;;;;14.05;69.79;100713.97;5036245;28;20029;-75
2021/05/02 09:14:50;;;;;;;14.18;10.45;;;;;;;13.95;70.50;100717.41;5044240;28;20071;-78
2021/05/02 09:19:50;;;;;;;16.80;10.98;;;;;;;13.86;71.84;100708.81;5019533;28;20525;-78
2021/05/02 09:22:17;;;;;;;15.32;10.60;;;;;;;14.12;72.10;100715.97;5041057;28;20080;-78
2021/05/02 09:24:57;;;;;;;15.98;10.20;;;;;;;14.23;71.01;100706.75;5038507;28;20037;-78
2021/05/02 09:27:42;;;;;;;14.82;10.68;;;;;;;14.50;70.76;100711.97;5042107;28;20033;-79
2021/05/02 09:30:16;;;;;;;15.35;10.65;;;;;;;14.83;67.87;100709.00;4975337;28;20523;-77
2021/05/02 09:32:44;;;;;;;13.88;9.63;;;;;;;14.91;66.64;100707.88;4975544;28;20065;-77
2021/05/02 09:35:29;;;;;;;13.00;8.68;;;;;;;15.34;66.27;100715.00;4965244;28;20041;-78
2021/05/02 09:38:07;;;;;;;11.90;9.02;;;;;;;15.83;64.23;100712.34;4962039;28;20041;-79
2021/05/02 09:40:53;;;;;;;11.27;8.38;;;;;;;15.59;61.38;100715.06;4970866;28;20050;-77
2021/05/02 09:43:37;;;;;;;9.52;7.22;;;;;;;15.54;61.01;100710.00;4971182;28;20038;-77
2021/05/02 09:46:24;;;;;;;9.95;7.55;;;;;;;15.59;60.63;100717.75;4970033;28;20037;-75
2021/05/02 09:49:00;;;;;;;11.68;8.35;;;;;;;15.32;59.42;100714.59;4954230;28;20047;-75
2021/05/02 09:51:30;;;;;;;11.85;7.88;;;;;;;15.38;58.95;100715.78;4953225;28;20585;-76
2021/05/02 09:54:13;;;;;;;13.90;7.93;;;;;;;15.45;59.97;100715.81;4957685;28;20061;-75
2021/05/02 09:56:53;;;;;;;13.13;8.32;;;;;;;15.39;60.26;100707.25;4962982;28;20184;-77
2021/05/02 09:59:26;;;;;;;10.20;7.30;;;;;;;15.29;61.27;100715.38;4941450;28;20134;-80
2021/05/02 10:02:10;;;;;;;9.80;7.63;;;;;;;15.62;60.99;100709.63;4966697;28;20081;-79
2021/05/02 10:04:43;;;;;;;9.00;6.50;;;;;;;15.90;59.95;100711.56;4966920;28;20051;-76
2021/05/02 10:07:10;;;;;;;9.73;7.78;;;;;;;16.02;58.12;100714.69;5007902;28;20052;-77
2021/05/02 10:09:37;;;;;;;9.38;6.82;;;;;;;16.13;57.35;100703.78;5034375;28;20116;-77
2021/05/02 10:12:07;;;;;;;8.88;6.60;;;;;;;16.33;57.82;100712.28;5020707;28;20064;-75
2021/05/02 10:14:51;;;;;;;8.70;5.65;;;;;;;16.43;56.23;100719.66;5049789;28;20083;-78
2021/05/02 10:17:17;;;;;;;8.38;6.05;;;;;;;16.75;57.48;100706.75;5028050;28;20599;-76
2021/05/02 10:19:43;;;;;;;7.30;5.65;;;;;;;17.34;54.48;100710.34;5041981;28;20025;-76
2021/05/02 10:22:10;;;;;;;6.05;5.20;;;;;;;17.69;51.12;100707.41;5049828;28;20029;-78
2021/05/02 10:24:36;;;;;;;6.85;5.05;;;;;;;17.91;52.33;100706.81;5045962;28;20041;-76
2021/05/02 10:27:26;;;;;;;9.35;6.28;;;;;;;18.34;52.19;100704.44;5045921;28;20083;-77
2021/05/02 10:29:57;;;;;;;9.00;5.88;;;;;;;18.91;50.79;100705.34;4945580;28;20067;-77
2021/05/02 10:32:32;;;;;;;7.60;5.22;;;;;;;19.12;50.42;100717.97;4952187;29;20492;-76
2021/05/02 10:35:08;;;;;;;8.35;5.50;;;;;;;18.69;49.56;100704.09;4943285;29;20085;-79
2021/05/02 10:37:36;;;;;;;7.25;5.45;;;;;;;18.83;48.82;100717.53;4952410;29;20031;-76
2021/05/02 10:40:07;;;;;;;8.18;5.60;;;;;;;18.96;49.44;100720.50;4951835;29;20099;-76
2021/05/02 10:42:35;;;;;;;8.57;4.93;;;;;;;19.32;49.58;100716.13;4949562;29;20073;-75
2021/05/02 10:45:37;;;;;;;6.43;4.90;;;;;;;18.85;48.34;100719.88;4950644;29;20407;-77
2021/05/02 10:48:25;;;;;;;7.25;4.70;;;;;;;18.58;48.30;100716.31;4946108;29;20051;-77
2021/05/02 10:50:55;;;;;;;6.07;4.95;;;;;;;17.72;47.16;100712.03;4944332;29;20572;-77
2021/05/02 10:53:22;;;;;;;5.68;4.55;;;;;;;17.76;49.34;100702.66;4944428;29;20130;-77
2021/05/02 10:55:55;;;;;;;4.72;4.22;;;;;;;18.28;49.97;100700.63;4949532;29;20031;-76
2021/05/02 10:58:24;;;;;;;5.00;4.50;;;;;;;18.61;50.29;100710.81;4932728;29;20051;-80
2021/05/02 11:01:03;;;;;;;5.05;3.95;;;;;;;18.25;48.78;100697.94;4941624;29;20220;-77
2021/05/02 11:03:40;;;;;;;4.72;4.10;;;;;;;18.69;47.98;100703.31;4945537;29;20539;-84
2021/05/02 11:06:06;;;;;;;6.30;3.80;;;;;;;19.05;48.12;100701.66;4966896;28;20056;-78
2021/05/02 11:08:47;;;;;;;3.85;3.45;;;;;;;19.37;47.66;100707.50;5041699;28;20029;-75
2021/05/02 11:11:31;;;;;;;4.97;3.42;;;;;;;19.31;45.78;100703.66;5036669;28;20037;-76
2021/05/02 11:14:21;;;;;;;3.67;3.28;;;;;;;18.86;46.32;100708.53;5042324;28;20524;-77
2021/05/02 11:16:49;;;;;;;3.90;3.08;;;;;;;18.54;45.92;100699.94;5029762;28;20554;-76
2021/05/02 11:19:22;;;;;;;4.05;2.92;;;;;;;18.18;46.18;100700.72;5050614;28;20033;-80
2021/05/02 11:24:17;;;;;;;7.07;3.50;;;;;;;17.35;48.57;100698.25;5044594;28;20024;-75